createdAt,value
2023-02-05T00:00:49.029Z,99768.38
2023-02-05T00:02:50.364Z,99765.81
2023-02-05T00:04:51.756Z,99763.25
2023-02-05T00:06:53.043Z,99769.22
2023-02-05T00:08:54.337Z,99762.38
2023-02-05T00:10:55.659Z,99760.69
2023-02-05T00:12:56.949Z,99754.72
2023-02-05T00:14:58.299Z,99753.88
2023-02-05T00:16:59.591Z,99758.13
2023-02-05T00:19:01.007Z,99757.28
2023-02-05T00:21:02.404Z,99752.16
2023-02-05T00:23:03.752Z,99748.75
2023-02-05T00:25:05.035Z,99747.88
2023-02-05T00:27:06.333Z,99750.44
2023-02-05T00:29:07.637Z,99745.31
2023-02-05T00:31:09.051Z,99737.66
2023-02-05T00:33:10.428Z,99740.22
2023-02-05T00:35:11.770Z,99747.00
2023-02-05T00:37:13.081Z,99746.16
2023-02-05T00:39:14.758Z,99741.00
2023-02-05T00:41:16.058Z,99747.81
2023-02-05T00:43:17.396Z,99758.91
2023-02-05T00:45:18.687Z,99754.63
2023-02-05T00:47:20.025Z,99747.78
2023-02-05T00:49:21.336Z,99743.50
2023-02-05T00:51:22.618Z,99744.38
2023-02-05T00:53:23.949Z,99747.78
2023-02-05T00:55:25.279Z,99746.91
2023-02-05T00:57:26.629Z,99740.09
2023-02-05T00:59:27.970Z,99736.69
2023-02-05T01:01:29.339Z,99739.22
2023-02-05T01:03:30.731Z,99735.81
2023-02-05T01:05:32.283Z,99744.31
2023-02-05T01:07:33.796Z,99749.44
2023-02-05T01:09:35.127Z,99745.19
2023-02-05T01:11:36.451Z,99742.59
2023-02-05T01:13:37.744Z,99740.91
2023-02-05T01:15:39.140Z,99739.19
2023-02-05T01:17:40.534Z,99740.03
2023-02-05T01:19:41.827Z,99742.59
2023-02-05T01:21:43.173Z,99737.47
2023-02-05T01:23:44.484Z,99740.88
2023-02-05T01:25:46.209Z,99740.88
2023-02-05T01:27:47.563Z,99740.03
2023-02-05T01:29:48.912Z,99746.00
2023-02-05T01:31:50.271Z,99730.69
2023-02-05T01:33:51.579Z,99735.81
2023-02-05T01:35:52.907Z,99735.81
2023-02-05T01:37:54.203Z,99729.00
2023-02-05T01:39:55.491Z,99740.97
2023-02-05T01:41:56.883Z,99738.44
2023-02-05T01:43:58.179Z,99735.03
2023-02-05T01:45:59.516Z,99736.75
2023-02-05T01:48:00.965Z,99741.00
2023-02-05T01:50:02.262Z,99729.94
2023-02-05T01:52:03.552Z,99728.25
2023-02-05T01:54:04.856Z,99721.44
2023-02-05T01:56:06.179Z,99725.69
2023-02-05T01:58:07.485Z,99713.75
2023-02-05T02:00:08.787Z,99706.88
2023-02-05T02:02:10.137Z,99717.13
2023-02-05T02:04:11.474Z,99714.56
2023-02-05T02:06:12.775Z,99714.56
2023-02-05T02:08:14.158Z,99711.13
2023-02-05T02:10:15.524Z,99709.44
2023-02-05T02:12:16.822Z,99712.84
2023-02-05T02:14:18.155Z,99706.88
2023-02-05T02:16:19.528Z,99694.91
2023-02-05T02:18:26.793Z,99694.06
2023-02-05T02:20:28.105Z,99689.81
2023-02-05T02:22:29.440Z,99692.34
2023-02-05T02:24:30.733Z,99702.59
2023-02-05T02:26:33.563Z,99694.06
2023-02-05T02:28:35.063Z,99698.31
2023-02-05T02:30:36.415Z,99694.06
2023-02-05T02:32:37.707Z,99695.75
2023-02-05T02:34:38.994Z,99691.47
2023-02-05T02:36:40.343Z,99692.34
2023-02-05T02:38:41.860Z,99685.53
2023-02-05T02:40:43.214Z,99680.41
2023-02-05T02:42:44.539Z,99682.09
2023-02-05T02:44:45.862Z,99675.31
2023-02-05T02:46:47.225Z,99677.84
2023-02-05T02:48:48.544Z,99671.06
2023-02-05T02:50:49.879Z,99511.50
2023-02-05T02:52:51.214Z,99671.91
2023-02-05T02:54:52.555Z,99670.19
2023-02-05T02:56:53.890Z,99669.34
2023-02-05T02:58:55.222Z,99668.50
2023-02-05T03:00:56.556Z,99664.22
2023-02-05T03:02:57.862Z,99667.66
2023-02-05T03:04:59.160Z,99663.41
2023-02-05T03:07:00.501Z,99662.53
2023-02-05T03:09:01.811Z,99663.41
2023-02-05T03:11:03.199Z,99660.84
2023-02-05T03:13:04.522Z,99658.31
2023-02-05T03:15:05.833Z,99662.56
2023-02-05T03:17:07.216Z,99648.91
2023-02-05T03:19:08.502Z,99644.66
2023-02-05T03:21:09.791Z,99652.31
2023-02-05T03:23:11.098Z,99649.75
2023-02-05T03:25:12.403Z,99652.31
2023-02-05T03:27:13.740Z,99655.72
2023-02-05T03:29:15.064Z,99647.19
2023-02-05T03:31:16.425Z,99655.72
2023-02-05T03:33:17.856Z,99649.75
2023-02-05T03:35:19.183Z,99645.50
2023-02-05T03:37:20.525Z,99639.50
2023-02-05T03:39:21.830Z,99641.22
2023-02-05T03:41:23.135Z,99643.75
2023-02-05T03:43:25.667Z,99644.63
2023-02-05T03:45:27.202Z,99648.00
2023-02-05T03:47:28.607Z,99654.84
2023-02-05T03:49:29.914Z,99648.00
2023-02-05T03:51:31.258Z,99648.00
2023-02-05T03:53:32.653Z,99656.56
2023-02-05T03:55:34.222Z,99647.19
2023-02-05T03:57:35.707Z,99659.09
2023-02-05T03:59:37.089Z,99664.22
2023-02-05T04:01:38.383Z,99655.69
2023-02-05T04:03:39.678Z,99659.09
2023-02-05T04:05:41.013Z,99661.66
2023-02-05T04:07:42.349Z,99661.66
2023-02-05T04:09:43.652Z,99654.84
2023-02-05T04:11:44.980Z,99654.81
2023-02-05T04:13:46.263Z,99650.56
2023-02-05T04:15:47.556Z,99644.59
2023-02-05T04:17:48.884Z,99647.19
2023-02-05T04:19:50.214Z,99653.16
2023-02-05T04:21:51.506Z,99647.19
2023-02-05T04:23:52.838Z,99655.72
2023-02-05T04:25:54.331Z,99654.88
2023-02-05T04:27:55.669Z,99680.44
2023-02-05T04:29:57.090Z,99676.25
2023-02-05T04:31:58.401Z,99664.28
2023-02-05T04:33:59.835Z,99673.66
2023-02-05T04:36:01.175Z,99665.13
2023-02-05T04:38:02.471Z,99662.56
2023-02-05T04:40:03.803Z,99666.00
2023-02-05T04:42:05.147Z,99671.06
2023-02-05T04:44:06.858Z,99668.53
2023-02-05T04:46:08.200Z,99671.91
2023-02-05T04:48:09.793Z,99677.03
2023-02-05T04:50:11.136Z,99678.72
2023-02-05T04:52:12.428Z,99676.19
2023-02-05T04:54:13.725Z,99677.03
2023-02-05T04:56:15.055Z,99683.00
2023-02-05T04:58:16.343Z,99671.06
2023-02-05T05:00:17.645Z,99675.34
2023-02-05T05:02:18.960Z,99671.03
2023-02-05T05:04:20.294Z,99671.91
2023-02-05T05:06:21.608Z,99679.56
2023-02-05T05:08:22.946Z,99670.19
2023-02-05T05:10:24.281Z,99676.19
2023-02-05T05:12:25.576Z,99677.00
2023-02-05T05:14:26.873Z,99677.00
2023-02-05T05:16:28.163Z,99671.91
2023-02-05T05:18:29.501Z,99676.13
2023-02-05T05:20:30.838Z,99673.59
2023-02-05T05:22:32.136Z,99674.47
2023-02-05T05:24:33.442Z,99668.47
2023-02-05T05:26:34.780Z,99671.91
2023-02-05T05:28:36.734Z,99672.75
2023-02-05T05:30:38.150Z,99683.00
2023-02-05T05:32:39.458Z,99676.16
2023-02-05T05:34:40.865Z,99672.75
2023-02-05T05:36:43.730Z,99675.31
2023-02-05T05:38:45.270Z,99673.63
2023-02-05T05:41:05.444Z,99673.59
2023-02-05T05:43:25.366Z,99668.50
2023-02-05T05:45:26.666Z,99661.66
2023-02-05T05:47:27.983Z,99671.94
2023-02-05T05:49:29.282Z,99668.53
2023-02-05T05:51:30.672Z,99673.69
2023-02-05T05:53:31.967Z,99676.22
2023-02-05T05:55:33.587Z,99688.19
2023-02-05T05:57:35.087Z,99683.03
2023-02-05T05:59:36.404Z,99687.31
2023-02-05T06:01:37.695Z,99686.44
2023-02-05T06:03:39.025Z,99677.06
2023-02-05T06:05:40.311Z,99683.00
2023-02-05T06:07:41.599Z,99671.91
2023-02-05T06:09:42.923Z,99668.50
2023-02-05T06:11:44.252Z,99672.75
2023-02-05T06:13:45.576Z,99676.16
2023-02-05T06:15:48.919Z,99686.41
2023-02-05T06:17:50.237Z,99683.84
2023-02-05T06:19:51.579Z,99687.25
2023-02-05T06:21:52.877Z,99693.22
2023-02-05T06:23:54.181Z,99700.91
2023-02-05T06:25:55.486Z,99709.44
2023-02-05T06:27:56.905Z,99710.28
2023-02-05T06:29:58.232Z,99712.84
2023-02-05T06:31:59.636Z,99710.28
2023-02-05T06:34:02.240Z,99711.13
2023-02-05T06:36:03.583Z,99718.78
2023-02-05T06:38:04.911Z,99720.50
2023-02-05T06:40:06.251Z,99719.63
2023-02-05T06:42:07.612Z,99721.34
2023-02-05T06:44:08.923Z,99722.19
2023-02-05T06:46:10.270Z,99725.59
2023-02-05T06:48:11.572Z,99727.31
2023-02-05T06:50:12.975Z,99736.69
2023-02-05T06:52:14.285Z,99734.97
2023-02-05T06:54:15.577Z,99730.69
2023-02-05T06:56:16.927Z,99724.75
2023-02-05T06:58:18.229Z,99731.53
2023-02-05T07:00:22.232Z,99732.34
2023-02-05T07:02:23.634Z,99730.63
2023-02-05T07:04:26.771Z,99730.63
2023-02-05T07:06:29.039Z,99731.47
2023-02-05T07:08:30.383Z,99740.00
2023-02-05T07:10:31.840Z,99732.34
2023-02-05T07:12:33.135Z,99745.97
2023-02-05T07:14:37.750Z,99740.91
2023-02-05T07:16:39.087Z,99738.34
2023-02-05T07:18:40.402Z,99735.84
2023-02-05T07:20:41.740Z,99733.28
2023-02-05T07:22:43.077Z,99730.75
2023-02-05T07:24:44.376Z,99738.41
2023-02-05T07:26:45.682Z,99740.13
2023-02-05T07:28:47.013Z,99749.50
2023-02-05T07:30:49.808Z,99753.78
2023-02-05T07:32:51.163Z,99753.78
2023-02-05T07:34:52.496Z,99741.84
2023-02-05T07:36:53.786Z,99747.81
2023-02-05T07:38:55.071Z,99747.81
2023-02-05T07:40:56.401Z,99744.41
2023-02-05T07:42:57.673Z,99750.38
2023-02-05T07:44:59.035Z,99587.34
2023-02-05T07:47:00.367Z,99751.22
2023-02-05T07:49:04.589Z,99757.19
2023-02-05T07:51:05.918Z,99759.72
2023-02-05T07:53:07.254Z,99759.72
2023-02-05T07:55:08.615Z,99758.84
2023-02-05T07:57:09.926Z,99754.63
2023-02-05T07:59:14.401Z,99750.34
2023-02-05T08:01:15.788Z,99759.75
2023-02-05T08:03:17.159Z,99757.19
2023-02-05T08:05:18.501Z,99755.50
2023-02-05T08:07:19.796Z,99754.63
2023-02-05T08:09:21.195Z,99751.16
2023-02-05T08:11:22.532Z,99743.53
2023-02-05T08:13:23.869Z,99743.50
2023-02-05T08:15:26.474Z,99741.75
2023-02-05T08:17:27.852Z,99739.19
2023-02-05T08:19:29.259Z,99733.16
2023-02-05T08:21:30.561Z,99722.97
2023-02-05T08:23:31.874Z,99737.41
2023-02-05T08:25:33.395Z,99736.56
2023-02-05T08:27:34.865Z,99735.69
2023-02-05T08:29:36.178Z,99731.47
2023-02-05T08:31:37.518Z,99730.63
2023-02-05T08:33:38.843Z,99722.09
2023-02-05T08:35:40.123Z,99734.91
2023-02-05T08:37:41.506Z,99734.94
2023-02-05T08:39:42.804Z,99738.34
2023-02-05T08:41:47.170Z,99738.38
2023-02-05T08:43:48.466Z,99729.91
2023-02-05T08:45:49.821Z,99724.78
2023-02-05T08:47:51.293Z,99712.00
2023-02-05T08:49:52.641Z,99717.13
2023-02-05T08:51:53.946Z,99711.19
2023-02-05T08:53:56.555Z,99704.38
2023-02-05T08:55:58.030Z,99704.38
2023-02-05T08:57:59.451Z,99708.59
2023-02-05T09:00:00.892Z,99704.34
2023-02-05T09:02:02.253Z,99697.50
2023-02-05T09:04:04.130Z,99696.66
2023-02-05T09:06:05.461Z,99694.06
2023-02-05T09:08:06.750Z,99696.63
2023-02-05T09:10:08.097Z,99688.97
2023-02-05T09:12:10.802Z,99702.59
2023-02-05T09:14:12.216Z,99690.66
2023-02-05T09:16:13.517Z,99699.22
2023-02-05T09:18:14.889Z,99681.28
2023-02-05T09:20:16.180Z,99680.44
2023-02-05T09:22:18.430Z,99685.53
2023-02-05T09:24:19.735Z,99673.59
2023-02-05T09:26:21.028Z,99672.72
2023-02-05T09:28:25.163Z,99669.34
2023-02-05T09:30:26.503Z,99673.59
2023-02-05T09:32:27.848Z,99655.69
2023-02-05T09:34:29.155Z,99660.81
2023-02-05T09:36:30.446Z,99653.16
2023-02-05T09:38:31.746Z,99645.47
2023-02-05T09:40:33.091Z,99655.69
2023-02-05T09:42:34.412Z,99648.88
2023-02-05T09:44:35.767Z,99655.69
2023-02-05T09:46:37.127Z,99651.44
2023-02-05T09:48:38.461Z,99644.59
2023-02-05T09:50:41.395Z,99648.00
2023-02-05T09:52:43.811Z,99642.91
2023-02-05T09:54:45.135Z,99645.47
2023-02-05T09:56:46.452Z,99647.16
2023-02-05T09:58:47.931Z,99642.06
2023-02-05T10:00:49.319Z,99642.91
2023-02-05T10:02:51.172Z,99643.78
2023-02-05T10:04:53.269Z,99643.75
2023-02-05T10:06:54.747Z,99642.06
2023-02-05T10:08:56.119Z,99651.44
2023-02-05T10:10:57.432Z,99651.47
2023-02-05T10:12:58.727Z,99653.16
2023-02-05T10:15:00.100Z,99642.94
2023-02-05T10:17:01.403Z,99642.09
2023-02-05T10:19:02.795Z,99655.75
2023-02-05T10:21:04.086Z,99650.63
2023-02-05T10:23:06.945Z,99649.78
2023-02-05T10:25:08.279Z,99647.25
2023-02-05T10:27:09.578Z,99641.25
2023-02-05T10:29:11.098Z,99642.91
2023-02-05T10:31:12.583Z,99636.94
2023-02-05T10:33:13.960Z,99636.09
2023-02-05T10:35:15.258Z,99636.09
2023-02-05T10:37:16.609Z,99636.94
2023-02-05T10:39:18.012Z,99630.97
2023-02-05T10:41:19.409Z,99627.53
2023-02-05T10:43:20.883Z,99637.75
2023-02-05T10:45:22.307Z,99632.66
2023-02-05T10:47:24.418Z,99638.59
2023-02-05T10:49:25.743Z,99633.66
2023-02-05T10:51:27.080Z,99633.78
2023-02-05T10:53:28.403Z,99634.03
2023-02-05T10:55:29.706Z,99636.75
2023-02-05T10:57:33.835Z,99623.81
2023-02-05T10:59:35.132Z,99622.66
2023-02-05T11:01:38.038Z,99615.53
2023-02-05T11:03:39.995Z,99615.66
2023-02-05T11:05:41.386Z,99619.91
2023-02-05T11:07:42.694Z,99616.47
2023-02-05T11:09:46.158Z,99621.59
2023-02-05T11:11:47.523Z,99625.00
2023-02-05T11:13:48.830Z,99619.03
2023-02-05T11:15:50.140Z,99613.94
2023-02-05T11:17:51.678Z,99607.13
2023-02-05T11:19:52.992Z,99609.66
2023-02-05T11:21:54.419Z,99606.28
2023-02-05T11:23:55.734Z,99602.84
2023-02-05T11:25:57.060Z,99601.16
2023-02-05T11:27:58.739Z,99600.31
2023-02-05T11:30:00.213Z,99605.41
2023-02-05T11:32:03.729Z,99607.97
2023-02-05T11:34:05.116Z,99614.81
2023-02-05T11:36:06.448Z,99617.34
2023-02-05T11:38:07.748Z,99617.34
2023-02-05T11:40:09.084Z,99620.75
2023-02-05T11:42:10.427Z,99610.50
2023-02-05T11:44:11.720Z,99608.78
2023-02-05T11:46:15.699Z,99624.16
2023-02-05T11:48:17.010Z,99610.50
2023-02-05T11:50:18.846Z,99609.69
2023-02-05T11:52:23.179Z,99598.59
2023-02-05T11:54:24.540Z,99604.56
2023-02-05T11:56:25.896Z,99596.88
2023-02-05T11:58:36.503Z,99595.19
2023-02-05T12:00:38.487Z,99592.63
2023-02-05T12:02:39.833Z,99591.78
2023-02-05T12:04:41.192Z,99589.22
2023-02-05T12:06:42.516Z,99591.78
2023-02-05T12:08:43.807Z,99593.47
2023-02-05T12:10:45.237Z,99584.09
2023-02-05T12:12:53.205Z,99583.25
2023-02-05T12:14:54.513Z,99579.84
2023-02-05T12:16:55.946Z,99567.91
2023-02-05T12:18:57.267Z,99571.31
2023-02-05T12:21:00.070Z,99562.75
2023-02-05T12:23:02.271Z,99566.19
2023-02-05T12:25:03.748Z,99567.91
2023-02-05T12:27:05.053Z,99575.56
2023-02-05T12:29:06.410Z,99562.75
2023-02-05T12:31:08.079Z,99568.66
2023-02-05T12:33:12.292Z,99566.72
2023-02-05T12:35:13.645Z,99560.44
2023-02-05T12:37:14.937Z,99565.56
2023-02-05T12:39:16.277Z,99569.03
2023-02-05T12:41:17.749Z,99562.00
2023-02-05T12:43:19.051Z,99565.50
2023-02-05T12:45:20.400Z,99563.94
2023-02-05T12:47:21.705Z,99560.63
2023-02-05T12:49:23.042Z,99558.91
2023-02-05T12:51:27.291Z,99557.13
2023-02-05T12:53:28.608Z,99435.66
2023-02-05T12:55:29.899Z,99571.63
2023-02-05T12:57:31.232Z,99573.34
2023-02-05T12:59:32.655Z,99570.81
2023-02-05T13:01:33.947Z,99566.50
2023-02-05T13:03:37.626Z,99566.44
2023-02-05T13:05:38.963Z,99563.88
2023-02-05T13:07:46.181Z,99558.00
2023-02-05T13:09:47.532Z,99555.38
2023-02-05T13:11:48.841Z,99556.41
2023-02-05T13:13:50.544Z,99564.16
2023-02-05T13:15:51.867Z,99558.34
2023-02-05T13:17:53.172Z,99559.28
2023-02-05T13:19:57.398Z,99585.75
2023-02-05T13:22:17.653Z,99562.75
2023-02-05T13:24:40.547Z,99560.19
2023-02-05T13:27:00.402Z,99561.03
2023-02-05T13:29:01.699Z,99561.03
2023-02-05T13:31:03.103Z,99565.31
2023-02-05T13:33:04.523Z,99555.94
2023-02-05T13:35:05.858Z,99565.31
2023-02-05T13:37:08.941Z,99573.84
2023-02-05T13:39:10.782Z,99566.16
2023-02-05T13:41:12.116Z,99552.53
2023-02-05T13:43:13.405Z,99548.28
2023-02-05T13:45:14.691Z,99559.38
2023-02-05T13:47:18.241Z,99555.97
2023-02-05T13:49:19.570Z,99554.22
2023-02-05T13:51:20.895Z,99555.97
2023-02-05T13:53:23.036Z,99554.25
2023-02-05T13:55:24.433Z,99559.38
2023-02-05T13:57:25.759Z,99560.22
2023-02-05T13:59:27.075Z,99550.84
2023-02-05T14:01:29.710Z,99554.25
2023-02-05T14:03:33.752Z,99539.75
2023-02-05T14:05:35.379Z,99538.03
2023-02-05T14:07:36.852Z,99543.19
2023-02-05T14:09:38.187Z,99543.16
2023-02-05T14:11:39.484Z,99561.06
2023-02-05T14:13:41.509Z,99551.69
2023-02-05T14:15:42.905Z,99559.38
2023-02-05T14:17:44.276Z,99563.63
2023-02-05T14:19:45.642Z,99573.03
2023-02-05T14:21:47.044Z,99577.28
2023-02-05T14:23:49.067Z,99580.69
2023-02-05T14:25:50.482Z,99570.44
2023-02-05T14:27:52.215Z,99573.00
2023-02-05T14:29:53.613Z,99575.56
2023-02-05T14:31:54.959Z,99575.56
2023-02-05T14:33:56.288Z,99576.41
2023-02-05T14:35:58.748Z,99579.81
2023-02-05T14:38:00.053Z,99573.00
2023-02-05T14:40:01.362Z,99573.88
2023-02-05T14:42:02.860Z,99571.31
2023-02-05T14:44:04.231Z,99567.91
2023-02-05T14:46:05.658Z,99566.19
2023-02-05T14:48:07.025Z,99567.88
2023-02-05T14:50:08.408Z,99556.78
2023-02-05T14:52:09.759Z,99548.25
2023-02-05T14:54:11.087Z,99549.09
2023-02-05T14:56:12.951Z,99550.81
2023-02-05T14:58:14.250Z,99553.38
2023-02-05T15:00:15.558Z,99395.81
2023-02-05T15:02:16.874Z,99564.47
2023-02-05T15:04:18.179Z,99570.47
2023-02-05T15:06:28.379Z,99576.44
2023-02-05T15:08:29.717Z,99579.84
2023-02-05T15:10:33.816Z,99589.22
2023-02-05T15:12:35.130Z,99584.97
2023-02-05T15:14:36.447Z,99594.34
2023-02-05T15:16:38.351Z,99594.34
2023-02-05T15:18:39.823Z,99602.88
2023-02-05T15:20:41.878Z,99602.00
2023-02-05T15:22:43.191Z,99600.31
2023-02-05T15:24:44.527Z,99599.44
2023-02-05T15:26:45.826Z,99607.97
2023-02-05T15:28:47.117Z,99596.03
2023-02-05T15:30:48.584Z,99588.34
2023-02-05T15:32:49.944Z,99597.72
2023-02-05T15:34:51.234Z,99591.78
2023-02-05T15:36:52.607Z,99598.59
2023-02-05T15:38:54.057Z,99606.28
2023-02-05T15:40:58.377Z,99609.69
2023-02-05T15:42:59.655Z,99607.13
2023-02-05T15:45:00.973Z,99606.28
2023-02-05T15:47:02.275Z,99600.31
2023-02-05T15:49:06.687Z,99607.97
2023-02-05T15:51:10.734Z,99601.13
2023-02-05T15:53:12.016Z,99597.72
2023-02-05T15:55:14.988Z,99610.50
2023-02-05T15:57:16.292Z,99595.97
2023-02-05T15:59:17.599Z,99597.59
2023-02-05T16:01:18.966Z,99596.72
2023-02-05T16:03:20.264Z,99593.31
2023-02-05T16:05:23.129Z,99595.75
2023-02-05T16:07:24.565Z,99597.47
2023-02-05T16:09:26.646Z,99605.84
2023-02-05T16:11:27.945Z,99591.44
2023-02-05T16:13:32.972Z,99592.31
2023-02-05T16:15:34.247Z,99592.34
2023-02-05T16:17:35.816Z,99597.53
2023-02-05T16:19:37.111Z,99597.50
2023-02-05T16:21:38.411Z,99598.44
2023-02-05T16:23:39.785Z,99601.94
2023-02-05T16:25:41.100Z,99613.03
2023-02-05T16:29:48.247Z,99608.69
2023-02-05T16:31:49.907Z,99597.53
2023-02-05T16:33:51.297Z,99599.22
2023-02-05T16:35:52.640Z,99603.66
2023-02-05T16:37:53.978Z,99604.56
2023-02-05T16:39:55.448Z,99602.81
2023-02-05T16:41:56.756Z,99607.91
2023-02-05T16:44:00.750Z,99604.44
2023-02-05T16:46:02.240Z,99602.56
2023-02-05T16:48:03.595Z,99606.91
2023-02-05T16:50:04.887Z,99607.81
2023-02-05T16:52:06.223Z,99613.78
2023-02-05T16:54:07.514Z,99612.09
2023-02-05T16:56:11.865Z,99613.81
2023-02-05T16:58:13.206Z,99619.75
2023-02-05T17:00:14.496Z,99620.63
2023-02-05T17:02:15.996Z,99461.28
2023-02-05T17:04:17.336Z,99612.91
2023-02-05T17:06:18.630Z,99617.22
2023-02-05T17:08:19.962Z,99624.91
2023-02-05T17:10:21.316Z,99635.97
2023-02-05T17:12:22.644Z,99638.38
2023-02-05T17:14:24.015Z,99651.41
2023-02-05T17:16:25.769Z,99646.38
2023-02-05T17:18:27.197Z,99659.09
2023-02-05T17:20:28.545Z,99667.66
2023-02-05T17:22:29.875Z,99655.75
2023-02-05T17:24:31.172Z,99659.97
2023-02-05T17:26:35.404Z,99652.31
2023-02-05T17:28:47.242Z,99656.53
2023-02-05T17:30:48.565Z,99662.50
2023-02-05T17:32:50.708Z,99665.91
2023-02-05T17:34:52.053Z,99665.91
2023-02-05T17:36:53.343Z,99655.69
2023-02-05T17:38:54.686Z,99659.13
2023-02-05T17:41:15.994Z,99658.31
2023-02-05T17:43:17.327Z,99650.63
2023-02-05T17:45:18.610Z,99652.31
2023-02-05T17:47:20.132Z,99647.13
2023-02-05T17:49:21.432Z,99643.56
2023-02-05T17:51:22.757Z,99632.41
2023-02-05T17:53:24.084Z,99636.56
2023-02-05T17:55:25.434Z,99638.28
2023-02-05T17:57:26.860Z,99637.44
2023-02-05T17:59:28.244Z,99654.56
2023-02-05T18:01:29.596Z,99639.97
2023-02-05T18:03:34.915Z,99638.31
2023-02-05T18:05:36.216Z,99640.13
2023-02-05T18:07:37.567Z,99635.88
2023-02-05T18:09:39.001Z,99638.44
2023-02-05T18:11:40.331Z,99632.44
2023-02-05T18:13:41.677Z,99628.19
2023-02-05T18:15:42.972Z,99634.16
2023-02-05T18:17:44.326Z,99633.31
2023-02-05T18:19:45.649Z,99629.88
2023-02-05T18:21:49.790Z,99630.84
2023-02-05T18:23:52.529Z,99642.91
2023-02-05T18:25:53.908Z,99639.44
2023-02-05T18:27:56.309Z,99642.81
2023-02-05T18:29:57.637Z,99638.53
2023-02-05T18:31:58.975Z,99654.75
2023-02-05T18:34:00.271Z,99659.00
2023-02-05T18:36:02.232Z,99667.56
2023-02-05T18:38:03.508Z,99667.56
2023-02-05T18:40:10.541Z,99672.66
2023-02-05T18:42:12.872Z,99670.91
2023-02-05T18:44:16.030Z,99661.53
2023-02-05T18:46:17.452Z,99671.75
2023-02-05T18:48:18.811Z,99672.63
2023-02-05T18:50:20.153Z,99675.19
2023-02-05T18:52:35.173Z,99673.47
2023-02-05T18:54:36.500Z,99684.59
2023-02-05T18:56:38.176Z,99681.19
2023-02-05T18:58:39.477Z,99686.31
2023-02-05T19:00:40.906Z,99678.63
2023-02-05T19:02:44.963Z,99683.75
2023-02-05T19:04:50.663Z,99678.63
2023-02-05T19:06:54.925Z,99674.31
2023-02-05T19:08:56.238Z,99676.91
2023-02-05T19:10:57.801Z,99674.34
2023-02-05T19:13:01.867Z,99673.50
2023-02-05T19:15:03.219Z,99687.16
2023-02-05T19:17:04.503Z,99688.97
2023-02-05T19:19:05.844Z,99688.16
2023-02-05T19:21:07.828Z,99690.69
2023-02-05T19:23:09.459Z,99702.63
2023-02-05T19:25:10.788Z,99702.59
2023-02-05T19:27:12.130Z,99709.41
2023-02-05T19:29:16.489Z,99706.84
2023-02-05T19:31:18.036Z,99709.41
2023-02-05T19:33:19.413Z,99705.13
2023-02-05T19:35:20.784Z,99705.13
2023-02-05T19:37:22.624Z,99705.94
2023-02-05T19:39:23.923Z,99712.78
2023-02-05T19:41:25.251Z,99719.63
2023-02-05T19:43:26.659Z,99723.03
2023-02-05T19:45:31.051Z,99728.16
2023-02-05T19:47:32.358Z,99728.16
2023-02-05T19:49:33.713Z,99736.69
2023-02-05T19:51:35.114Z,99727.28
2023-02-05T19:53:36.416Z,99723.00
2023-02-05T19:55:37.764Z,99730.72
2023-02-05T19:57:40.433Z,99726.53
2023-02-05T19:59:41.743Z,99723.13
2023-02-05T20:01:46.067Z,99723.97
2023-02-05T20:03:50.183Z,99726.47
2023-02-05T20:05:51.488Z,99731.63
2023-02-05T20:07:55.598Z,99724.81
2023-02-05T20:09:57.255Z,99739.34
2023-02-05T20:11:58.559Z,99733.38
2023-02-05T20:13:59.899Z,99736.81
2023-02-05T20:16:01.235Z,99740.19
2023-02-05T20:18:08.536Z,99735.06
2023-02-05T20:20:15.903Z,99735.06
2023-02-05T20:22:24.355Z,99735.91
2023-02-05T20:24:25.660Z,99727.34
2023-02-05T20:26:29.932Z,99730.75
2023-02-05T20:28:31.267Z,99731.59
2023-02-05T20:30:51.339Z,99723.91
2023-02-05T20:32:52.791Z,99736.66
2023-02-05T20:35:00.093Z,99733.22
2023-02-05T20:37:02.140Z,99732.41
2023-02-05T20:39:03.488Z,99723.78
2023-02-05T20:41:04.823Z,99720.47
2023-02-05T20:43:09.186Z,99730.81
2023-02-05T20:45:10.496Z,99735.94
2023-02-05T20:47:11.871Z,99721.44
2023-02-05T20:49:15.948Z,99723.13
2023-02-05T20:51:17.380Z,99719.69
2023-02-05T20:53:18.759Z,99715.41
2023-02-05T20:55:20.065Z,99711.97
2023-02-05T20:57:21.480Z,99708.53
2023-02-05T20:59:22.803Z,99698.25
2023-02-05T21:01:24.115Z,99702.53
2023-02-05T21:03:25.411Z,99705.06
2023-02-05T21:05:26.698Z,99705.03
2023-02-05T21:07:29.758Z,99703.22
2023-02-05T21:09:31.099Z,99704.97
2023-02-05T21:11:35.063Z,99711.81
2023-02-05T21:13:39.376Z,99719.00
2023-02-05T21:15:40.700Z,99712.81
2023-02-05T21:17:42.857Z,99722.16
2023-02-05T21:19:44.204Z,99726.88
2023-02-05T21:21:45.493Z,99727.09
2023-02-05T21:23:46.876Z,99722.09
2023-02-05T21:25:48.202Z,99727.25
2023-02-05T21:27:50.854Z,99723.03
2023-02-05T21:29:52.395Z,99729.91
2023-02-05T21:31:55.537Z,99728.25
2023-02-05T21:33:57.403Z,99729.94
2023-02-05T21:36:07.790Z,99737.63
2023-02-05T21:38:09.135Z,99732.53
2023-02-05T21:40:10.431Z,99726.56
2023-02-05T21:42:11.759Z,99728.25
2023-02-05T21:44:13.078Z,99735.09
2023-02-05T21:46:14.421Z,99746.19
2023-02-05T21:48:15.730Z,99753.88
2023-02-05T21:50:17.036Z,99755.56
2023-02-05T21:52:18.347Z,99762.38
2023-02-05T21:54:25.197Z,99771.78
2023-02-05T21:56:27.130Z,99793.97
2023-02-05T21:58:28.459Z,99794.81
2023-02-05T22:00:29.794Z,99794.81
2023-02-05T22:02:31.132Z,99776.88
2023-02-05T22:04:32.424Z,99780.28
2023-02-05T22:06:33.728Z,99788.78
2023-02-05T22:08:35.077Z,99793.03
2023-02-05T22:10:36.628Z,99798.97
2023-02-05T22:12:38.095Z,99804.94
2023-02-05T22:14:39.434Z,99825.38
2023-02-05T22:16:41.152Z,99814.31
2023-02-05T22:18:42.494Z,99808.31
2023-02-05T22:20:44.251Z,99804.88
2023-02-05T22:22:45.633Z,99823.63
2023-02-05T22:24:47.015Z,99828.75
2023-02-05T22:26:48.443Z,99818.50
2023-02-05T22:28:49.786Z,99821.91
2023-02-05T22:30:51.185Z,99816.78
2023-02-05T22:32:52.503Z,99826.16
2023-02-05T22:34:54.454Z,99811.66
2023-02-05T22:36:56.192Z,99815.91
2023-02-05T22:38:57.516Z,99818.47
2023-02-05T22:40:58.810Z,99817.59
2023-02-05T22:43:00.144Z,99803.97
2023-02-05T22:45:02.256Z,99804.78
2023-02-05T22:47:03.644Z,99806.53
2023-02-05T22:49:05.019Z,99814.19
2023-02-05T22:51:06.344Z,99822.69
2023-02-05T22:53:07.672Z,99819.31
2023-02-05T22:55:09.053Z,99817.59
2023-02-05T22:57:10.394Z,99809.91
2023-02-05T22:59:11.702Z,99804.81
2023-02-05T23:01:13.047Z,99803.16
2023-02-05T23:03:14.407Z,99792.97
2023-02-05T23:05:15.723Z,99797.25
2023-02-05T23:07:17.026Z,99796.41
2023-02-05T23:09:18.371Z,99792.16
2023-02-05T23:11:19.713Z,99792.19
2023-02-05T23:13:21.023Z,99797.34
2023-02-05T23:15:22.326Z,99787.97
2023-02-05T23:17:23.614Z,99786.28
2023-02-05T23:19:24.915Z,99799.91
2023-02-05T23:21:26.244Z,99793.09
2023-02-05T23:23:27.651Z,99791.41
2023-02-05T23:25:28.943Z,99794.78
2023-02-05T23:27:30.259Z,99799.91
2023-02-05T23:29:31.587Z,99809.28
2023-02-05T23:31:33.473Z,99800.69
2023-02-05T23:33:34.849Z,99804.97
2023-02-05T23:35:36.432Z,99811.78
2023-02-05T23:37:37.946Z,99802.38
2023-02-05T23:39:39.238Z,99793.81
2023-02-05T23:41:40.596Z,99791.28
2023-02-05T23:43:41.898Z,99784.41
2023-02-05T23:45:43.328Z,99780.16
2023-02-05T23:47:44.879Z,99781.00
2023-02-05T23:49:46.219Z,99781.00
2023-02-05T23:51:47.516Z,99782.72
2023-02-05T23:53:48.816Z,99781.84